Sardis City, Alabama
Current Conditions -  °F | °C
As of 12:15 AM on Sunday 26 Oct 2014 (Local Time) from K8A0 Reporting Station
Haze Haze  
Wind Chill: 15°   Ceiling: Unl
Heat Index: 15°   Visibility: 5mi
Dew Point: 15°   Wind: 3mph
Humidity: 100%   Direction: 190°S
Pressure: 30.04"   Gusts: NA
Location:  34.1534°N, 86.1537°W
Report Text: K8A0 260515Z AUTO 19003KT 5SM BR CLR 15/15 A3004 RMK AO2
Loading
Personal Weather Stations






























Interactive Weather Map
Tropical Storm Tracking
New forecast layout! Learn more

10-Day Weather Forecast

Advertisements
Track Severe Weather on mobile